Time;durP1;ratioP1;P1;durP2;ratioP2;P2;SDS_P1;SDS_P2;PMS_P1;PMS_P2;Temp;Humidity;BMP_temperature;BMP_pressure;BME280_temperature;BME280_humidity;BME280_pressure;Samples;Min_cycle;Max_cycle;Signal;HPM_P1;HPM_P2
2021/04/30 02:47:36;;;;;;;11.18;10.27;;;9.80;99.90;;;;;;5357691;22;88094;-86
2021/04/30 02:50:04;;;;;;;10.27;9.57;;;9.90;99.90;;;;;;4929671;28;86825;-85
2021/04/30 02:52:30;;;;;;;14.30;13.40;;;;;;;;;;4927259;28;87177;-85
2021/04/30 02:54:56;;;;;;;10.77;9.98;;;9.70;99.90;;;;;;4910867;28;86995;-88
2021/04/30 02:57:22;;;;;;;11.82;11.02;;;9.80;99.90;;;;;;4909513;28;86973;-86
2021/04/30 02:59:48;;;;;;;18.33;17.33;;;9.80;99.90;;;;;;4891368;28;86926;-84
2021/04/30 03:02:14;;;;;;;26.98;25.67;;;9.80;99.90;;;;;;4913136;28;88143;-85
2021/04/30 03:04:41;;;;;;;30.55;29.00;;;9.80;99.90;;;;;;4905756;28;87756;-85
2021/04/30 03:07:07;;;;;;;20.20;19.02;;;9.80;99.90;;;;;;4908712;28;86743;-85
2021/04/30 03:09:33;;;;;;;17.17;16.08;;;9.80;99.90;;;;;;4909419;28;86262;-86
2021/04/30 03:11:59;;;;;;;15.20;14.30;;;9.70;99.90;;;;;;4909196;28;87124;-88
2021/04/30 03:14:24;;;;;;;17.63;16.60;;;9.80;99.90;;;;;;4908755;28;86965;-86
2021/04/30 03:16:50;;;;;;;16.13;15.10;;;9.80;99.90;;;;;;4908582;28;86677;-86
2021/04/30 03:19:16;;;;;;;15.73;14.82;;;9.80;99.90;;;;;;4910362;28;86310;-84
2021/04/30 03:21:42;;;;;;;17.27;16.23;;;9.90;99.90;;;;;;4917808;28;86635;-85
2021/04/30 03:24:08;;;;;;;16.70;15.50;;;9.80;99.90;;;;;;4922313;28;88445;-83
2021/04/30 03:26:34;;;;;;;13.75;12.77;;;9.80;99.90;;;;;;4905398;28;87778;-83
2021/04/30 03:29:01;;;;;;;11.23;10.32;;;9.80;99.90;;;;;;4890794;28;87017;-82
2021/04/30 03:31:26;;;;;;;11.45;10.65;;;9.80;99.90;;;;;;4908454;28;88353;-82
2021/04/30 03:33:53;;;;;;;13.65;12.65;;;9.70;99.90;;;;;;4906874;28;89948;-85
2021/04/30 03:36:20;;;;;;;13.48;12.60;;;9.70;99.90;;;;;;4906141;28;87820;-84
2021/04/30 03:38:50;;;;;;;14.73;13.77;;;9.70;99.90;;;;;;4916485;28;86350;-83
2021/04/30 03:41:16;;;;;;;15.25;14.25;;;9.70;99.90;;;;;;4914272;28;88332;-83
2021/04/30 03:43:43;;;;;;;16.65;15.55;;;9.60;99.90;;;;;;4908427;28;87161;-85
2021/04/30 03:46:09;;;;;;;12.98;12.18;;;9.70;99.90;;;;;;4907663;28;86811;-86
2021/04/30 03:48:34;;;;;;;15.50;14.43;;;9.70;99.90;;;;;;4929358;28;87143;-83
2021/04/30 03:51:00;;;;;;;17.38;16.23;;;9.70;99.90;;;;;;4940303;28;87872;-88
2021/04/30 03:53:27;;;;;;;23.30;22.00;;;9.70;99.90;;;;;;4896711;28;90643;-85
2021/04/30 03:55:53;;;;;;;29.25;27.65;;;9.60;99.90;;;;;;4945458;28;86876;-83
2021/04/30 03:58:20;;;;;;;30.83;29.13;;;9.70;99.90;;;;;;4949665;28;86844;-86
2021/04/30 04:00:46;;;;;;;25.90;24.40;;;9.60;99.90;;;;;;4940906;28;86870;-83
2021/04/30 04:03:12;;;;;;;29.23;27.48;;;9.60;99.90;;;;;;4919887;28;87546;-84
2021/04/30 04:05:39;;;;;;;16.20;15.18;;;9.60;99.90;;;;;;4916168;28;86912;-84
2021/04/30 04:08:08;;;;;;;20.08;18.88;;;9.70;99.90;;;;;;4932018;28;86310;-86
2021/04/30 04:10:35;;;;;;;32.13;30.52;;;9.70;99.90;;;;;;4928977;28;86812;-82
2021/04/30 04:13:14;;;;;;;33.45;31.55;;;9.70;99.90;;;;;;4935382;28;86890;-86
2021/04/30 04:15:40;;;;;;;29.40;27.60;;;9.80;99.90;;;;;;4919989;28;87913;-81
2021/04/30 04:18:05;;;;;;;12.05;11.05;;;9.80;99.90;;;;;;4925721;28;86925;-82
2021/04/30 04:20:31;;;;;;;21.48;20.25;;;9.80;99.90;;;;;;4919134;28;87011;-84
2021/04/30 04:22:57;;;;;;;21.30;20.10;;;9.90;99.90;;;;;;4946670;28;86901;-84
2021/04/30 04:25:22;;;;;;;20.23;19.13;;;9.80;99.90;;;;;;4941579;28;86818;-83
2021/04/30 04:27:48;;;;;;;11.10;10.35;;;9.90;99.90;;;;;;4931822;28;86839;-84
2021/04/30 04:30:14;;;;;;;9.65;9.05;;;9.90;99.90;;;;;;4946969;28;86506;-82
2021/04/30 04:32:40;;;;;;;10.73;9.85;;;9.90;99.90;;;;;;4965812;28;86148;-82
2021/04/30 04:35:07;;;;;;;9.73;9.02;;;9.90;99.90;;;;;;4952616;28;86099;-82
2021/04/30 04:37:32;;;;;;;11.40;10.75;;;10.00;99.90;;;;;;4955374;28;86113;-88
2021/04/30 04:39:58;;;;;;;12.68;11.82;;;9.90;99.90;;;;;;4949240;28;87627;-83
2021/04/30 04:42:24;;;;;;;9.35;8.85;;;10.10;99.90;;;;;;4953753;28;87166;-85
2021/04/30 04:44:49;;;;;;;7.90;7.45;;;10.10;99.90;;;;;;4918531;28;87003;-84
2021/04/30 04:47:15;;;;;;;8.82;8.32;;;10.10;99.90;;;;;;4928224;28;87626;-87
2021/04/30 04:49:42;;;;;;;7.75;7.25;;;10.20;99.90;;;;;;4913972;28;87309;-86
2021/04/30 04:52:08;;;;;;;8.77;8.25;;;10.20;99.90;;;;;;4903112;28;86989;-87
2021/04/30 04:54:35;;;;;;;11.23;10.52;;;10.20;99.90;;;;;;4906907;28;86878;-86
2021/04/30 04:57:01;;;;;;;11.90;11.20;;;10.20;99.90;;;;;;4926749;28;85862;-86
2021/04/30 04:59:27;;;;;;;10.85;10.15;;;10.20;99.90;;;;;;4924761;28;91304;-83
2021/04/30 05:01:53;;;;;;;12.57;11.48;;;10.20;99.90;;;;;;4913240;28;88060;-85
2021/04/30 05:04:19;;;;;;;13.68;12.57;;;10.20;99.90;;;;;;4919315;28;87986;-85
2021/04/30 05:06:45;;;;;;;12.68;11.65;;;10.20;99.90;;;;;;4914892;28;86892;-84
2021/04/30 05:09:11;;;;;;;11.73;10.82;;;10.20;99.90;;;;;;4919175;28;87276;-82
2021/04/30 05:11:38;;;;;;;13.25;12.18;;;10.20;99.90;;;;;;4909910;28;88121;-84
2021/04/30 05:14:03;;;;;;;13.45;12.30;;;10.30;99.90;;;;;;4933509;28;86614;-84
2021/04/30 05:16:29;;;;;;;16.20;14.90;;;;;;;;;;4927449;28;86852;-87
2021/04/30 05:18:55;;;;;;;16.58;15.38;;;10.50;99.90;;;;;;4913379;28;86881;-86
2021/04/30 05:21:21;;;;;;;14.85;13.70;;;10.60;99.90;;;;;;4923245;28;90122;-83
2021/04/30 05:23:59;;;;;;;14.80;13.60;;;10.70;99.90;;;;;;4925311;28;86330;-84
2021/04/30 05:26:29;;;;;;;14.05;12.85;;;10.80;99.90;;;;;;4919704;28;86758;-84
2021/04/30 05:28:59;;;;;;;17.13;15.82;;;10.80;99.90;;;;;;4901243;28;90119;-87
2021/04/30 05:31:25;;;;;;;18.45;16.88;;;10.90;99.90;;;;;;4911186;28;87173;-88
2021/04/30 05:33:51;;;;;;;19.13;17.65;;;11.00;99.90;;;;;;4915832;28;87506;-84
2021/04/30 05:36:18;;;;;;;28.40;26.55;;;11.00;99.90;;;;;;4909950;28;87105;-90
2021/04/30 05:38:44;;;;;;;23.20;21.50;;;11.10;99.90;;;;;;4896622;28;87273;-89
2021/04/30 05:41:10;;;;;;;28.00;26.23;;;11.10;99.90;;;;;;4901863;28;86915;-87
2021/04/30 05:43:35;;;;;;;30.70;28.90;;;11.10;99.90;;;;;;4910020;28;86838;-88
2021/04/30 05:46:01;;;;;;;36.47;34.38;;;11.10;99.90;;;;;;4911460;28;86538;-85
2021/04/30 05:48:27;;;;;;;36.00;33.90;;;11.00;99.90;;;;;;4935967;28;87062;-88
2021/04/30 05:50:52;;;;;;;36.58;34.33;;;10.90;99.90;;;;;;4933773;28;87275;-86
2021/04/30 05:53:20;;;;;;;27.60;25.90;;;10.90;99.90;;;;;;4930125;28;87782;-85
2021/04/30 05:55:46;;;;;;;25.60;23.65;;;10.80;99.90;;;;;;4927041;28;86888;-88
2021/04/30 05:58:12;;;;;;;22.48;21.02;;;10.80;99.90;;;;;;4925964;28;88180;-87
2021/04/30 06:00:37;;;;;;;20.63;19.23;;;10.90;99.90;;;;;;4930704;28;87726;-85
2021/04/30 06:03:03;;;;;;;18.85;17.52;;;11.00;99.90;;;;;;4915769;28;87036;-86
2021/04/30 06:05:29;;;;;;;19.00;17.70;;;11.10;99.90;;;;;;4941361;28;86672;-87
2021/04/30 06:07:55;;;;;;;14.73;13.52;;;11.30;99.90;;;;;;4927680;28;87151;-88
2021/04/30 06:10:20;;;;;;;16.75;15.25;;;11.50;99.90;;;;;;4941082;28;87437;-84
2021/04/30 06:12:46;;;;;;;18.40;16.98;;;11.60;99.90;;;;;;4927773;28;86967;-84
2021/04/30 06:15:12;;;;;;;27.15;25.55;;;11.60;99.90;;;;;;4938967;28;86815;-89
2021/04/30 06:17:38;;;;;;;26.42;24.83;;;11.70;99.90;;;;;;4939454;28;88512;-86
2021/04/30 06:20:04;;;;;;;16.42;15.23;;;11.70;99.90;;;;;;4944417;28;87905;-89
2021/04/30 06:22:30;;;;;;;15.20;13.80;;;11.90;99.90;;;;;;4932740;28;86672;-87
2021/04/30 06:24:56;;;;;;;12.57;11.50;;;12.00;99.90;;;;;;4947147;28;86961;-85
2021/04/30 06:27:21;;;;;;;14.45;13.20;;;12.00;99.90;;;;;;4945158;28;86957;-87
2021/04/30 06:29:47;;;;;;;17.65;16.15;;;12.00;99.90;;;;;;4946042;28;87326;-85
2021/04/30 06:32:13;;;;;;;30.88;29.05;;;12.10;99.90;;;;;;4942831;28;86915;-84
2021/04/30 06:34:38;;;;;;;31.98;30.27;;;12.10;99.90;;;;;;4929220;28;86142;-85
2021/04/30 06:37:04;;;;;;;12.63;11.52;;;12.20;99.90;;;;;;4945481;28;87904;-86
2021/04/30 06:39:30;;;;;;;12.82;11.82;;;12.20;99.90;;;;;;4946063;28;87441;-84
2021/04/30 06:41:56;;;;;;;11.20;10.38;;;12.30;99.90;;;;;;4932858;28;87815;-88
2021/04/30 06:44:22;;;;;;;14.52;13.63;;;12.40;99.90;;;;;;4946687;28;86854;-85
2021/04/30 06:46:48;;;;;;;15.73;14.48;;;12.90;99.90;;;;;;4944733;28;87666;-85
2021/04/30 06:49:14;;;;;;;16.35;15.32;;;12.60;99.90;;;;;;4947015;28;87118;-85
2021/04/30 06:51:40;;;;;;;15.07;14.18;;;;;;;;;;4946556;28;87070;-85
2021/04/30 06:54:06;;;;;;;16.55;15.45;;;12.70;99.90;;;;;;4946600;28;86986;-85
2021/04/30 06:56:32;;;;;;;15.55;14.45;;;12.80;99.90;;;;;;4936170;28;86809;-85
2021/04/30 06:58:58;;;;;;;13.13;12.20;;;12.90;99.90;;;;;;4918434;28;88135;-85
2021/04/30 07:01:24;;;;;;;13.00;11.77;;;13.00;99.90;;;;;;4921640;28;86937;-86
2021/04/30 07:03:50;;;;;;;12.70;11.80;;;13.00;99.90;;;;;;4921889;28;86963;-84
2021/04/30 07:06:20;;;;;;;14.82;13.70;;;13.00;99.90;;;;;;4926855;28;88519;-89
2021/04/30 07:08:46;;;;;;;16.35;15.35;;;13.10;99.90;;;;;;4913663;28;89627;-86
2021/04/30 07:11:12;;;;;;;16.65;15.55;;;13.30;99.90;;;;;;4931263;28;87020;-86
2021/04/30 07:13:38;;;;;;;20.48;19.42;;;13.40;99.90;;;;;;4917185;28;86616;-86
2021/04/30 07:16:05;;;;;;;21.38;20.25;;;13.50;99.90;;;;;;4913797;28;87444;-85
2021/04/30 07:18:31;;;;;;;17.05;16.05;;;13.60;99.90;;;;;;4925654;28;87613;-86
2021/04/30 07:20:57;;;;;;;13.25;12.38;;;13.70;99.90;;;;;;4925297;28;86883;-87
2021/04/30 07:23:23;;;;;;;9.27;8.77;;;13.80;99.90;;;;;;4917263;28;86372;-85
2021/04/30 07:25:50;;;;;;;8.60;8.20;;;13.80;99.90;;;;;;4912760;28;86914;-86
2021/04/30 07:28:16;;;;;;;19.00;18.15;;;14.00;99.90;;;;;;4895104;28;90189;-88
2021/04/30 07:30:43;;;;;;;32.40;30.73;;;14.10;99.90;;;;;;4914521;28;87888;-87
2021/04/30 07:33:08;;;;;;;34.28;32.72;;;14.10;99.90;;;;;;4913250;28;87054;-87
2021/04/30 07:35:34;;;;;;;15.05;14.40;;;14.20;99.90;;;;;;4919834;28;87654;-87
2021/04/30 07:38:00;;;;;;;16.02;15.23;;;14.20;99.90;;;;;;4925058;28;86916;-87
2021/04/30 07:40:26;;;;;;;22.02;21.10;;;14.40;99.90;;;;;;4925184;28;86883;-86
2021/04/30 07:42:52;;;;;;;23.52;22.52;;;14.70;99.90;;;;;;4930065;28;86872;-86
2021/04/30 07:45:18;;;;;;;16.80;16.08;;;14.90;99.50;;;;;;4932100;28;87589;-88
2021/04/30 07:47:44;;;;;;;9.57;9.00;;;15.20;99.50;;;;;;4912242;28;87088;-87
2021/04/30 07:50:10;;;;;;;14.48;13.77;;;15.70;98.70;;;;;;4893992;28;87067;-88
2021/04/30 07:52:37;;;;;;;18.17;17.38;;;16.20;97.40;;;;;;4893493;28;86319;-88
2021/04/30 07:55:03;;;;;;;22.50;21.55;;;16.90;95.90;;;;;;4903281;28;89201;-89
2021/04/30 07:57:29;;;;;;;10.52;10.02;;;18.20;92.40;;;;;;4916950;28;89428;-88
2021/04/30 07:59:55;;;;;;;37.72;36.13;;;19.70;87.60;;;;;;4915879;28;86198;-88
2021/04/30 08:02:21;;;;;;;13.23;12.63;;;21.30;77.80;;;;;;4904559;28;86944;-89
2021/04/30 08:04:47;;;;;;;50.65;48.60;;;22.70;66.80;;;;;;4904846;28;87320;-87
2021/04/30 08:07:14;;;;;;;17.75;16.95;;;24.60;59.90;;;;;;4909262;28;88038;-88
2021/04/30 08:09:40;;;;;;;24.75;23.67;;;25.80;52.00;;;;;;4919498;28;86172;-88
2021/04/30 08:12:07;;;;;;;11.75;11.25;;;26.40;50.00;;;;;;4925546;28;85534;-87
2021/04/30 08:14:32;;;;;;;38.15;36.60;;;27.70;47.10;;;;;;4914142;28;89913;-87
2021/04/30 08:16:58;;;;;;;40.42;38.83;;;28.50;43.40;;;;;;4923918;28;87269;-88
2021/04/30 08:19:25;;;;;;;43.80;42.10;;;28.10;42.70;;;;;;4925228;28;87603;-89
2021/04/30 08:21:52;;;;;;;106.20;101.93;;;29.00;42.10;;;;;;4924313;28;86703;-87
2021/04/30 08:24:18;;;;;;;91.20;87.63;;;29.80;41.80;;;;;;4917908;28;86865;-87
2021/04/30 08:26:44;;;;;;;39.67;38.15;;;31.60;38.40;;;;;;4894958;28;87195;-87
2021/04/30 08:29:10;;;;;;;71.47;68.68;;;31.50;38.70;;;;;;4897082;28;86629;-87
2021/04/30 08:31:37;;;;;;;73.07;70.13;;;32.20;36.00;;;;;;4912206;28;86913;-87
2021/04/30 08:34:03;;;;;;;43.75;41.95;;;33.20;36.00;;;;;;4914146;28;88127;-88
2021/04/30 08:36:28;;;;;;;62.15;59.78;;;33.80;34.80;;;;;;4910094;28;87332;-86
2021/04/30 08:38:54;;;;;;;35.97;34.58;;;35.10;33.70;;;;;;4894138;28;86925;-87
2021/04/30 08:41:24;;;;;;;23.42;22.52;;;35.00;31.20;;;;;;4905501;28;87050;-89
2021/04/30 08:43:51;;;;;;;55.40;53.10;;;35.30;32.90;;;;;;4917734;28;91849;-87
2021/04/30 08:46:17;;;;;;;111.05;106.68;;;36.40;29.70;;;;;;4904303;28;88926;-88
2021/04/30 08:48:44;;;;;;;44.53;42.78;;;36.40;30.60;;;;;;4945921;28;86944;-87
2021/04/30 08:51:13;;;;;;;27.65;26.50;;;36.40;30.60;;;;;;4938939;28;86790;-86
2021/04/30 08:53:40;;;;;;;23.23;22.27;;;37.60;29.70;;;;;;4950084;28;88183;-88
2021/04/30 08:56:06;;;;;;;41.17;39.58;;;38.60;29.20;;;;;;4947289;28;88443;-87
2021/04/30 08:58:37;;;;;;;48.63;46.60;;;39.20;29.20;;;;;;4949426;28;86914;-85
2021/04/30 09:01:04;;;;;;;51.63;49.53;;;40.10;29.20;;;;;;4950993;28;86497;-89
2021/04/30 09:03:30;;;;;;;47.10;45.13;;;40.40;29.00;;;;;;4950303;28;86996;-85
2021/04/30 09:05:56;;;;;;;75.80;72.78;;;41.00;28.60;;;;;;4947407;28;88149;-87
2021/04/30 09:08:26;;;;;;;75.03;72.03;;;41.50;28.20;;;;;;4945404;28;87759;-85
2021/04/30 09:10:55;;;;;;;69.00;66.20;;;41.80;27.90;;;;;;4946087;28;86658;-86
2021/04/30 09:13:23;;;;;;;59.20;56.95;;;42.50;27.60;;;;;;4945669;28;87243;-86
2021/04/30 09:16:09;;;;;;;40.10;38.50;;;43.10;27.00;;;;;;4938355;28;86883;-84
2021/04/30 09:18:35;;;;;;;29.13;27.65;;;43.70;26.40;;;;;;4945919;28;87723;-88
2021/04/30 09:21:09;;;;;;;30.77;29.48;;;44.10;26.80;;;;;;4945177;28;86922;-86
2021/04/30 09:23:39;;;;;;;33.28;31.98;;;44.00;26.00;;;;;;4934260;28;87259;-87
2021/04/30 09:26:26;;;;;;;51.22;49.03;;;43.70;26.30;;;;;;4943585;28;86990;-86
2021/04/30 09:29:13;;;;;;;45.88;44.08;;;43.90;25.40;;;;;;4938107;28;86905;-84
2021/04/30 09:31:44;;;;;;;46.55;44.78;;;43.90;25.30;;;;;;4928008;28;87105;-86
2021/04/30 09:34:29;;;;;;;29.02;27.90;;;44.20;24.80;;;;;;4927201;28;88066;-85
2021/04/30 09:37:03;;;;;;;55.58;53.38;;;43.70;24.90;;;;;;4934302;28;88084;-85
2021/04/30 09:39:47;;;;;;;54.10;52.05;;;44.20;24.80;;;;;;4928025;28;87062;-86
2021/04/30 09:42:17;;;;;;;50.15;48.17;;;44.60;24.40;;;;;;4937754;28;86954;-86
2021/04/30 09:44:51;;;;;;;55.67;53.47;;;44.40;24.50;;;;;;4924471;28;88211;-87
2021/04/30 09:47:21;;;;;;;71.40;68.60;;;44.50;24.90;;;;;;4938596;28;87058;-86
2021/04/30 09:49:49;;;;;;;46.35;44.33;;;45.20;25.00;;;;;;4935536;28;86984;-85
2021/04/30 09:52:17;;;;;;;37.97;36.42;;;45.20;25.10;;;;;;4945414;28;86435;-86
2021/04/30 09:54:45;;;;;;;34.78;33.38;;;45.30;25.30;;;;;;4945483;28;87680;-86
2021/04/30 09:57:11;;;;;;;25.87;24.70;;;45.20;25.10;;;;;;4946771;28;87941;-86
2021/04/30 09:59:39;;;;;;;46.70;44.78;;;45.50;25.10;;;;;;4935479;28;87702;-85
2021/04/30 10:02:19;;;;;;;106.82;102.68;;;45.50;24.90;;;;;;4944668;28;87064;-84
2021/04/30 10:04:48;;;;;;;125.03;119.93;;;46.00;24.00;;;;;;4946039;28;86941;-85
2021/04/30 10:07:15;;;;;;;;;;;46.00;24.50;;;;;;4941369;28;87989;-85
2021/04/30 10:09:43;;;;;;;154.10;147.95;;;46.20;25.20;;;;;;4933548;28;87063;-84
2021/04/30 10:12:28;;;;;;;84.95;81.50;;;46.40;25.40;;;;;;4948861;28;87216;-84
2021/04/30 10:14:55;;;;;;;83.13;79.70;;;46.70;24.10;;;;;;4937465;28;88079;-85
2021/04/30 10:17:21;;;;;;;67.57;64.82;;;47.10;24.40;;;;;;4943264;28;88267;-86
2021/04/30 10:19:49;;;;;;;85.85;81.88;;;46.60;24.30;;;;;;4938536;28;87009;-86
2021/04/30 10:22:16;;;;;;;61.13;58.72;;;46.40;23.90;;;;;;4948090;28;86890;-85
2021/04/30 10:24:46;;;;;;;87.75;84.20;;;45.30;24.60;;;;;;4940538;28;89357;-86
2021/04/30 10:27:18;;;;;;;76.20;73.15;;;45.30;25.10;;;;;;4941740;28;87865;-86
2021/04/30 10:29:50;;;;;;;88.95;85.35;;;45.80;24.80;;;;;;4937514;28;86802;-86
2021/04/30 10:32:20;;;;;;;93.15;89.40;;;45.60;24.20;;;;;;4934983;28;87056;-85
2021/04/30 10:34:55;;;;;;;55.03;52.67;;;44.90;25.10;;;;;;4926111;28;89549;-86
2021/04/30 10:37:31;;;;;;;78.50;75.38;;;45.10;24.90;;;;;;4936304;28;87393;-84
2021/04/30 10:39:59;;;;;;;85.32;81.97;;;45.30;24.60;;;;;;4949349;28;86855;-87
2021/04/30 10:42:43;;;;;;;100.53;96.53;;;45.50;24.50;;;;;;4951201;28;86329;-86
2021/04/30 10:45:12;;;;;;;95.45;91.72;;;45.70;24.60;;;;;;4938731;28;88616;-85
2021/04/30 10:47:38;;;;;;;57.15;54.75;;;46.20;24.40;;;;;;4946895;28;87497;-85
2021/04/30 10:50:19;;;;;;;72.88;69.93;;;46.40;24.30;;;;;;4956978;28;87634;-85
2021/04/30 10:52:53;;;;;;;82.88;79.60;;;46.20;25.10;;;;;;4953177;28;87080;-85
2021/04/30 10:55:19;;;;;;;53.50;51.28;;;46.70;24.50;;;;;;4953889;28;87065;-85
2021/04/30 10:57:54;;;;;;;51.92;49.83;;;46.80;24.30;;;;;;4946800;28;87855;-85
2021/04/30 11:00:47;;;;;;;45.92;43.97;;;46.10;23.90;;;;;;4948246;28;86932;-85
2021/04/30 11:03:15;;;;;;;46.60;44.67;;;46.20;24.10;;;;;;4942175;28;87441;-86
2021/04/30 11:05:51;;;;;;;45.38;43.47;;;44.70;24.60;;;;;;4935999;28;86873;-86
2021/04/30 11:11:46;;;;;;;55.83;53.45;;;44.80;25.10;;;;;;4943738;28;86993;-85
2021/04/30 11:14:17;;;;;;;53.10;50.88;;;45.40;25.30;;;;;;4950154;28;86556;-84
2021/04/30 11:16:43;;;;;;;46.95;44.97;;;45.50;24.70;;;;;;4947467;28;88140;-85
2021/04/30 11:19:37;;;;;;;64.75;61.63;;;45.40;24.90;;;;;;4942671;28;88551;-85
2021/04/30 11:22:14;;;;;;;49.95;47.75;;;45.80;24.10;;;;;;4937735;28;86924;-85
2021/04/30 11:24:42;;;;;;;55.75;53.33;;;45.30;25.10;;;;;;4952462;28;87066;-86
2021/04/30 11:27:17;;;;;;;67.30;64.50;;;45.10;24.80;;;;;;4949073;28;86873;-85
2021/04/30 11:29:52;;;;;;;62.88;60.17;;;45.30;24.60;;;;;;4949435;28;87494;-83
2021/04/30 11:32:25;;;;;;;77.85;74.60;;;45.50;24.40;;;;;;4949445;28;86845;-84
2021/04/30 11:35:02;;;;;;;77.32;74.15;;;45.40;25.00;;;;;;4948879;28;85982;-84
2021/04/30 11:37:33;;;;;;;91.70;87.88;;;45.40;24.50;;;;;;4950596;28;86937;-84
2021/04/30 11:40:00;;;;;;;131.32;126.03;;;45.60;24.80;;;;;;4942696;28;88575;-84
2021/04/30 11:42:31;;;;;;;136.52;131.13;;;45.00;24.90;;;;;;4954657;28;87933;-86
2021/04/30 11:44:57;;;;;;;163.85;157.35;;;44.70;24.60;;;;;;4949720;28;86706;-84
2021/04/30 11:47:34;;;;;;;153.73;147.65;;;44.10;25.10;;;;;;4947961;28;86912;-85
2021/04/30 11:50:06;;;;;;;137.30;131.80;;;44.50;25.10;;;;;;4945064;28;86720;-84
2021/04/30 11:52:50;;;;;;;178.45;171.38;;;44.30;24.90;;;;;;4932039;28;88058;-84
2021/04/30 11:55:19;;;;;;;170.25;163.38;;;44.10;24.90;;;;;;4951301;28;86827;-85
2021/04/30 11:58:40;;;;;;;166.80;160.02;;;43.60;25.40;;;;;;4953955;28;86813;-84
2021/04/30 12:01:07;;;;;;;147.85;141.73;;;43.70;25.10;;;;;;4959619;28;86268;-83
2021/04/30 12:03:53;;;;;;;188.00;180.52;;;43.70;25.50;;;;;;4949948;28;86834;-84
2021/04/30 12:06:36;;;;;;;116.63;111.65;;;42.70;25.20;;;;;;4952265;28;86710;-83
2021/04/30 12:12:28;;;;;;;89.57;85.95;;;40.40;26.30;;;;;;4950383;28;86933;-83
2021/04/30 12:14:58;;;;;;;74.15;71.15;;;39.90;26.50;;;;;;4954558;28;86860;-84
2021/04/30 12:17:33;;;;;;;124.38;119.38;;;39.60;26.40;;;;;;4953838;28;86946;-84
2021/04/30 12:20:14;;;;;;;118.93;113.93;;;39.50;26.70;;;;;;4933408;28;89414;-85
2021/04/30 12:23:01;;;;;;;121.80;116.88;;;38.90;26.60;;;;;;4951792;28;88536;-84
2021/04/30 12:25:32;;;;;;;82.32;78.88;;;37.80;27.40;;;;;;4952767;28;86908;-83
2021/04/30 12:28:16;;;;;;;30.58;29.08;;;37.00;27.80;;;;;;4954216;28;86068;-84
2021/04/30 12:30:43;;;;;;;25.35;24.15;;;37.20;27.70;;;;;;4948281;28;86985;-85
2021/04/30 12:33:26;;;;;;;20.02;18.92;;;36.20;28.00;;;;;;4948949;28;87493;-82
2021/04/30 12:35:57;;;;;;;33.08;31.52;;;35.00;29.10;;;;;;4951316;28;87991;-85
2021/04/30 12:38:24;;;;;;;19.30;18.30;;;33.10;30.10;;;;;;4947826;28;86994;-81
2021/04/30 12:40:51;;;;;;;42.65;40.53;;;30.20;32.60;;;;;;4950132;28;87646;-83
2021/04/30 12:43:25;;;;;;;191.43;182.85;;;28.10;35.00;;;;;;4950027;28;87398;-85
2021/04/30 12:45:51;;;;;;;85.57;81.70;;;27.00;36.60;;;;;;4949291;28;86754;-85
2021/04/30 12:48:18;;;;;;;50.90;48.70;;;26.30;36.90;;;;;;4949866;28;86848;-86
2021/04/30 12:50:44;;;;;;;96.70;92.60;;;;;;;;;;4949968;28;87209;-84
2021/04/30 12:53:10;;;;;;;243.75;233.38;;;25.20;38.50;;;;;;4951256;28;87231;-84
2021/04/30 12:55:39;;;;;;;111.18;106.22;;;24.50;39.70;;;;;;4946597;28;86936;-83
2021/04/30 12:58:14;;;;;;;44.58;42.15;;;24.00;41.00;;;;;;4949479;28;86927;-85
2021/04/30 13:01:03;;;;;;;63.38;60.10;;;23.10;42.70;;;;;;4946039;28;88262;-85
2021/04/30 13:03:41;;;;;;;71.63;68.18;;;22.50;43.60;;;;;;4957895;28;88468;-86
2021/04/30 13:06:12;;;;;;;45.85;43.40;;;21.70;45.60;;;;;;4950217;28;86753;-83
2021/04/30 13:08:40;;;;;;;94.47;90.30;;;21.10;46.30;;;;;;4951577;28;87037;-84
2021/04/30 13:11:14;;;;;;;40.10;37.95;;;20.20;49.30;;;;;;4948711;28;87155;-85
2021/04/30 13:14:10;;;;;;;30.52;28.70;;;20.30;49.90;;;;;;4937641;28;87016;-85
2021/04/30 13:16:41;;;;;;;22.45;21.02;;;20.00;53.20;;;;;;4963640;28;87360;-83
2021/04/30 13:19:24;;;;;;;22.08;20.60;;;19.60;56.40;;;;;;4966604;28;86336;-83
2021/04/30 13:21:55;;;;;;;22.45;20.85;;;19.40;58.80;;;;;;4951451;28;86989;-84
2021/04/30 13:24:22;;;;;;;;;;;19.30;61.30;;;;;;4950166;28;87082;-86
2021/04/30 13:27:05;;;;;;;20.85;19.13;;;19.40;64.80;;;;;;4938787;28;87161;-86
2021/04/30 13:29:35;;;;;;;17.80;16.27;;;19.20;64.80;;;;;;4953324;28;86823;-85
2021/04/30 13:32:04;;;;;;;;;;;19.10;64.90;;;;;;4963983;28;86900;-84
2021/04/30 13:34:36;;;;;;;23.13;20.77;;;18.60;73.30;;;;;;4947083;28;88178;-85
2021/04/30 13:37:04;;;;;;;22.27;18.65;;;18.80;76.90;;;;;;4949829;28;87042;-84
2021/04/30 13:39:35;;;;;;;20.05;18.27;;;18.80;77.40;;;;;;4950495;28;87043;-84
2021/04/30 13:42:01;;;;;;;;;;;18.60;82.50;;;;;;4955943;28;87117;-85
2021/04/30 13:44:27;;;;;;;23.05;21.17;;;17.50;82.10;;;;;;4937368;28;90490;-85
2021/04/30 13:46:58;;;;;;;18.70;17.05;;;17.40;88.20;;;;;;4950224;28;87056;-87
2021/04/30 13:49:46;;;;;;;28.80;26.90;;;17.50;88.20;;;;;;4948672;28;87003;-85
2021/04/30 13:52:12;;;;;;;27.20;25.02;;;16.90;92.10;;;;;;4950522;28;88286;-85
2021/04/30 13:54:42;;;;;;;22.77;20.80;;;16.90;93.80;;;;;;4947454;28;87218;-85
2021/04/30 13:57:09;;;;;;;24.50;22.52;;;16.50;95.10;;;;;;4957181;28;86667;-84
2021/04/30 13:59:36;;;;;;;22.15;20.10;;;16.60;95.80;;;;;;4947004;28;87172;-83
2021/04/30 14:02:12;;;;;;;20.98;19.08;;;16.70;96.00;;;;;;4954761;28;87581;-85
2021/04/30 14:04:38;;;;;;;23.02;20.92;;;17.10;94.60;;;;;;4945105;28;87391;-85
2021/04/30 14:07:22;;;;;;;21.63;19.60;;;16.70;93.90;;;;;;4953106;28;86877;-85
2021/04/30 14:09:48;;;;;;;28.23;25.92;;;16.60;94.70;;;;;;4942471;28;86182;-86
2021/04/30 14:12:19;;;;;;;25.17;23.08;;;16.70;94.80;;;;;;4956367;28;88180;-84
2021/04/30 14:14:46;;;;;;;24.85;22.70;;;16.80;94.10;;;;;;5006426;22;87205;-90
2021/04/30 14:17:12;;;;;;;24.42;22.42;;;16.60;93.70;;;;;;4951280;28;88249;-89
2021/04/30 14:19:38;;;;;;;24.45;22.42;;;;;;;;;;4946671;28;87571;-87
2021/04/30 14:22:33;;;;;;;22.75;20.70;;;16.60;92.20;;;;;;4949218;28;87115;-86
2021/04/30 14:24:59;;;;;;;23.20;21.02;;;15.90;94.20;;;;;;4950758;28;87010;-86
2021/04/30 14:27:27;;;;;;;26.98;24.67;;;16.10;95.50;;;;;;4948140;28;87787;-87
2021/04/30 14:29:54;;;;;;;40.83;37.97;;;16.00;95.90;;;;;;4950018;28;87637;-86
2021/04/30 14:32:29;;;;;;;53.33;50.33;;;16.00;95.90;;;;;;4952950;28;87122;-88
2021/04/30 14:35:03;;;;;;;51.95;48.70;;;16.00;95.50;;;;;;4959838;28;88264;-87
2021/04/30 14:37:28;;;;;;;48.25;45.20;;;16.00;94.70;;;;;;4957710;28;86955;-84
2021/04/30 14:39:54;;;;;;;42.13;39.10;;;;;;;;;;4941699;28;86981;-83
2021/04/30 14:42:20;;;;;;;50.30;47.20;;;15.70;93.70;;;;;;4947203;28;87855;-86
2021/04/30 14:44:46;;;;;;;48.10;45.00;;;15.10;92.70;;;;;;4917318;28;87514;-88
2021/04/30 14:47:12;;;;;;;38.42;35.85;;;;;;;;;;4931488;28;87268;-87
2021/04/30 14:49:41;;;;;;;29.48;27.27;;;15.00;93.90;;;;;;4932940;28;86631;-87
2021/04/30 14:52:34;;;;;;;24.73;22.65;;;14.90;94.30;;;;;;4931466;28;87185;-87
2021/04/30 14:55:27;;;;;;;25.67;23.70;;;15.00;94.60;;;;;;4944853;28;87272;-85
2021/04/30 14:57:56;;;;;;;23.75;21.65;;;14.70;96.40;;;;;;4918019;28;86825;-87
2021/04/30 15:00:21;;;;;;;23.33;21.20;;;14.40;96.70;;;;;;4926618;28;86308;-86
2021/04/30 15:02:48;;;;;;;24.63;22.42;;;;;;;;;;4918407;28;87054;-87
2021/04/30 15:05:19;;;;;;;26.10;23.83;;;14.50;97.60;;;;;;4924291;28;88468;-85
2021/04/30 15:07:45;;;;;;;;;;;14.50;97.60;;;;;;4921759;28;87744;-87
2021/04/30 15:10:54;;;;;;;22.60;20.30;;;14.40;98.20;;;;;;4940039;28;86994;-85
2021/04/30 15:14:04;;;;;;;22.95;20.85;;;14.50;98.70;;;;;;4936241;28;87026;-85
2021/04/30 15:16:30;;;;;;;22.33;20.38;;;;;;;;;;4925961;28;87560;-86
2021/04/30 15:18:58;;;;;;;20.10;18.20;;;14.00;98.90;;;;;;4919284;28;86941;-86
2021/04/30 15:21:26;;;;;;;25.73;23.52;;;14.00;99.90;;;;;;4904614;28;86832;-86
2021/04/30 15:23:52;;;;;;;27.13;24.80;;;13.80;99.90;;;;;;4925690;28;87712;-84
2021/04/30 15:26:18;;;;;;;29.95;27.48;;;;;;;;;;4928100;28;87278;-86
2021/04/30 15:28:44;;;;;;;33.53;31.20;;;13.60;99.90;;;;;;4932428;28;86812;-87
2021/04/30 15:31:14;;;;;;;32.50;29.98;;;;;;;;;;4917281;28;86742;-86
2021/04/30 15:33:40;;;;;;;36.42;33.88;;;13.60;99.90;;;;;;4925085;28;89179;-86
2021/04/30 15:36:06;;;;;;;37.28;34.67;;;;;;;;;;4938995;28;88891;-87
2021/04/30 15:38:31;;;;;;;33.22;30.83;;;13.60;99.90;;;;;;4925766;28;86972;-86